Time,TemperatureF,DewpointF,PressureIn,WindDirection,WindDirectionDegrees,WindSpeedMPH,WindSpeedGustMPH,Humidity,HourlyPrecipIn,Conditions,Clouds,dailyrainin,SoftwareType,DateUTC
2013-07-13 01:00:00,56.0,-99.9,-100.00,East,88,2.0,5.0,-999,0.00,,,-99.99,,2013-07-13 07:00:00,
2013-07-13 01:33:00,56.0,-99.9,-100.00,East,88,2.0,5.0,-999,0.00,,,-99.99,,2013-07-13 07:33:00,
2013-07-13 01:44:00,56.0,-99.9,-100.00,East,88,2.0,5.0,-999,0.00,,,-99.99,,2013-07-13 07:44:00,
2013-07-13 01:53:00,56.0,-99.9,-100.00,East,88,2.0,5.0,-999,0.00,,,-99.99,,2013-07-13 07:53:00,
2013-07-13 02:00:00,57.0,-99.9,-100.00,East,93,3.0,5.0,-999,0.00,,,-99.99,,2013-07-13 08:00:00,
2013-07-13 02:33:00,57.0,-99.9,-100.00,East,93,3.0,5.0,-999,0.00,,,-99.99,,2013-07-13 08:33:00,
2013-07-13 02:43:00,57.0,-99.9,-100.00,East,93,3.0,5.0,-999,0.00,,,-99.99,,2013-07-13 08:43:00,
2013-07-13 02:52:00,57.0,-99.9,-100.00,East,93,3.0,5.0,-999,0.00,,,-99.99,,2013-07-13 08:52:00,
2013-07-13 03:00:00,57.0,-99.9,-100.00,ESE,102,3.0,5.0,-999,0.00,,,-99.99,,2013-07-13 09:00:00,
2013-07-13 03:33:00,57.0,-99.9,-100.00,ESE,102,3.0,5.0,-999,0.00,,,-99.99,,2013-07-13 09:33:00,
2013-07-13 03:43:00,57.0,-99.9,-100.00,ESE,102,3.0,5.0,-999,0.00,,,-99.99,,2013-07-13 09:43:00,
2013-07-13 03:53:00,57.0,-99.9,-100.00,ESE,102,3.0,5.0,-999,0.00,,,-99.99,,2013-07-13 09:53:00,
2013-07-13 04:00:00,57.0,-99.9,-100.00,East,94,3.0,5.0,-999,0.00,,,-99.99,,2013-07-13 10:00:00,
2013-07-13 04:32:00,57.0,-99.9,-100.00,East,94,3.0,5.0,-999,0.00,,,-99.99,,2013-07-13 10:32:00,
2013-07-13 04:43:00,57.0,-99.9,-100.00,East,94,3.0,5.0,-999,0.00,,,-99.99,,2013-07-13 10:43:00,
2013-07-13 04:52:00,57.0,-99.9,-100.00,East,94,3.0,5.0,-999,0.00,,,-99.99,,2013-07-13 10:52:00,
2013-07-13 05:00:00,57.0,-99.9,-100.00,East,87,2.0,5.0,-999,0.00,,,-99.99,,2013-07-13 11:00:00,
2013-07-13 05:32:00,57.0,-99.9,-100.00,East,87,2.0,5.0,-999,0.00,,,-99.99,,2013-07-13 11:32:00,
2013-07-13 05:43:00,57.0,-99.9,-100.00,East,87,2.0,5.0,-999,0.00,,,-99.99,,2013-07-13 11:43:00,
2013-07-13 05:52:00,57.0,-99.9,-100.00,East,87,2.0,5.0,-999,0.00,,,-99.99,,2013-07-13 11:52:00,
2013-07-13 06:00:00,56.0,-99.9,-100.00,East,86,2.0,4.0,-999,0.00,,,-99.99,,2013-07-13 12:00:00,
2013-07-13 06:32:00,56.0,-99.9,-100.00,East,86,2.0,4.0,-999,0.00,,,-99.99,,2013-07-13 12:32:00,
2013-07-13 06:43:00,56.0,-99.9,-100.00,East,86,2.0,4.0,-999,0.00,,,-99.99,,2013-07-13 12:43:00,
2013-07-13 06:52:00,56.0,-99.9,-100.00,East,86,2.0,4.0,-999,0.00,,,-99.99,,2013-07-13 12:52:00,
2013-07-13 07:00:00,56.0,-99.9,-100.00,East,99,2.0,8.0,-999,0.00,,,-99.99,,2013-07-13 13:00:00,
2013-07-13 07:43:00,56.0,-99.9,-100.00,East,99,2.0,8.0,-999,0.00,,,-99.99,,2013-07-13 13:43:00,
2013-07-13 07:53:00,56.0,-99.9,-100.00,East,99,2.0,8.0,-999,0.00,,,-99.99,,2013-07-13 13:53:00,
2013-07-13 08:00:00,58.0,-99.9,-100.00,SSW,212,1.0,3.0,-999,0.00,,,-99.99,,2013-07-13 14:00:00,
2013-07-13 08:33:00,58.0,-99.9,-100.00,SSW,212,1.0,3.0,-999,0.00,,,-99.99,,2013-07-13 14:33:00,
2013-07-13 08:44:00,58.0,-99.9,-100.00,SSW,212,1.0,3.0,-999,0.00,,,-99.99,,2013-07-13 14:44:00,
2013-07-13 08:53:00,58.0,-99.9,-100.00,SSW,212,1.0,3.0,-999,0.00,,,-99.99,,2013-07-13 14:53:00,
2013-07-13 09:00:00,63.0,-99.9,-100.00,SSE,159,1.0,6.0,-999,0.00,,,-99.99,,2013-07-13 15:00:00,
2013-07-13 09:43:00,63.0,-99.9,-100.00,SSE,159,1.0,6.0,-999,0.00,,,-99.99,,2013-07-13 15:43:00,
2013-07-13 09:53:00,63.0,-99.9,-100.00,SSE,159,1.0,6.0,-999,0.00,,,-99.99,,2013-07-13 15:53:00,
2013-07-13 10:00:00,67.0,-99.9,-100.00,West,275,4.0,12.0,-999,0.00,,,-99.99,,2013-07-13 16:00:00,
2013-07-13 10:43:00,67.0,-99.9,-100.00,West,275,4.0,12.0,-999,0.00,,,-99.99,,2013-07-13 16:43:00,
2013-07-13 10:53:00,67.0,-99.9,-100.00,West,275,4.0,12.0,-999,0.00,,,-99.99,,2013-07-13 16:53:00,
2013-07-13 11:00:00,67.0,-99.9,-100.00,WNW,292,5.0,16.0,-999,0.00,,,-99.99,,2013-07-13 17:00:00,
2013-07-13 11:33:00,67.0,-99.9,-100.00,WNW,292,5.0,16.0,-999,0.00,,,-99.99,,2013-07-13 17:33:00,
2013-07-13 11:43:00,67.0,-99.9,-100.00,WNW,292,5.0,16.0,-999,0.00,,,-99.99,,2013-07-13 17:43:00,
2013-07-13 11:52:00,67.0,-99.9,-100.00,WNW,292,5.0,16.0,-999,0.00,,,-99.99,,2013-07-13 17:52:00,
2013-07-13 12:32:00,69.0,-99.9,-100.00,WNW,298,7.0,14.0,-999,0.00,,,-99.99,,2013-07-13 18:32:00,
2013-07-13 12:44:00,69.0,-99.9,-100.00,WNW,298,7.0,14.0,-999,0.00,,,-99.99,,2013-07-13 18:44:00,
2013-07-13 12:53:00,69.0,-99.9,-100.00,WNW,298,7.0,14.0,-999,0.00,,,-99.99,,2013-07-13 18:53:00,
2013-07-13 13:00:00,70.0,-99.9,-100.00,West,281,5.0,12.0,-999,0.00,,,-99.99,,2013-07-13 19:00:00,
2013-07-13 13:32:00,70.0,-99.9,-100.00,West,281,5.0,12.0,-999,0.00,,,-99.99,,2013-07-13 19:32:00,
2013-07-13 13:44:00,70.0,-99.9,-100.00,West,281,5.0,12.0,-999,0.00,,,-99.99,,2013-07-13 19:44:00,
2013-07-13 14:33:00,72.0,-99.9,-100.00,West,277,5.0,12.0,-999,0.00,,,-99.99,,2013-07-13 20:33:00,
2013-07-13 14:43:00,72.0,-99.9,-100.00,West,277,5.0,12.0,-999,0.00,,,-99.99,,2013-07-13 20:43:00,
2013-07-13 15:00:00,70.0,-99.9,-100.00,West,277,5.0,14.0,-999,0.00,,,-99.99,,2013-07-13 21:00:00,
2013-07-13 15:32:00,70.0,-99.9,-100.00,West,277,5.0,14.0,-999,0.00,,,-99.99,,2013-07-13 21:32:00,
2013-07-13 15:43:00,70.0,-99.9,-100.00,West,277,5.0,14.0,-999,0.00,,,-99.99,,2013-07-13 21:43:00,
2013-07-13 15:53:00,70.0,-99.9,-100.00,West,277,5.0,14.0,-999,0.00,,,-99.99,,2013-07-13 21:53:00,
2013-07-13 16:00:00,73.0,-99.9,-100.00,WNW,282,5.0,14.0,-999,0.00,,,-99.99,,2013-07-13 22:00:00,
2013-07-13 16:32:00,73.0,-99.9,-100.00,WNW,282,5.0,14.0,-999,0.00,,,-99.99,,2013-07-13 22:32:00,
2013-07-13 16:43:00,73.0,-99.9,-100.00,WNW,282,5.0,14.0,-999,0.00,,,-99.99,,2013-07-13 22:43:00,
2013-07-13 16:53:00,73.0,-99.9,-100.00,WNW,282,5.0,14.0,-999,0.00,,,-99.99,,2013-07-13 22:53:00,
2013-07-13 17:00:00,73.0,-99.9,-100.00,WNW,292,5.0,12.0,-999,0.00,,,-99.99,,2013-07-13 23:00:00,
2013-07-13 17:33:00,73.0,-99.9,-100.00,WNW,292,5.0,12.0,-999,0.00,,,-99.99,,2013-07-13 23:33:00,
2013-07-13 17:43:00,73.0,-99.9,-100.00,WNW,292,5.0,12.0,-999,0.00,,,-99.99,,2013-07-13 23:43:00,
2013-07-13 17:53:00,73.0,-99.9,-100.00,WNW,292,5.0,12.0,-999,0.00,,,-99.99,,2013-07-13 23:53:00,
2013-07-13 18:00:00,71.0,-99.9,-100.00,WNW,290,6.0,24.0,-999,0.00,,,-99.99,,2013-07-14 00:00:00,
2013-07-13 18:33:00,71.0,-99.9,-100.00,WNW,290,6.0,24.0,-999,0.00,,,-99.99,,2013-07-14 00:33:00,
2013-07-13 18:42:00,71.0,-99.9,-100.00,WNW,290,6.0,24.0,-999,0.00,,,-99.99,,2013-07-14 00:42:00,
2013-07-13 18:53:00,71.0,-99.9,-100.00,WNW,290,6.0,24.0,-999,0.00,,,-99.99,,2013-07-14 00:53:00,
2013-07-13 19:00:00,61.0,-99.9,-100.00,WNW,288,7.0,24.0,-999,0.00,,,-99.99,,2013-07-14 01:00:00,
2013-07-13 19:43:00,61.0,-99.9,-100.00,WNW,288,7.0,24.0,-999,0.00,,,-99.99,,2013-07-14 01:43:00,
2013-07-13 19:52:00,61.0,-99.9,-100.00,WNW,288,7.0,24.0,-999,0.00,,,-99.99,,2013-07-14 01:52:00,
2013-07-13 20:00:00,59.0,-99.9,-100.00,West,266,5.0,21.0,-999,0.00,,,-99.99,,2013-07-14 02:00:00,
2013-07-13 20:32:00,59.0,-99.9,-100.00,West,266,5.0,21.0,-999,0.00,,,-99.99,,2013-07-14 02:32:00,
2013-07-13 20:43:00,59.0,-99.9,-100.00,West,266,5.0,21.0,-999,0.00,,,-99.99,,2013-07-14 02:43:00,
2013-07-13 20:53:00,59.0,-99.9,-100.00,West,266,5.0,21.0,-999,0.00,,,-99.99,,2013-07-14 02:53:00,
2013-07-13 21:00:00,54.0,-99.9,-100.00,East,96,3.0,9.0,-999,0.00,,,-99.99,,2013-07-14 03:00:00,
2013-07-13 21:32:00,54.0,-99.9,-100.00,East,96,3.0,9.0,-999,0.00,,,-99.99,,2013-07-14 03:32:00,
2013-07-13 21:43:00,54.0,-99.9,-100.00,East,96,3.0,9.0,-999,0.00,,,-99.99,,2013-07-14 03:43:00,
2013-07-13 21:53:00,54.0,-99.9,-100.00,East,96,3.0,9.0,-999,0.00,,,-99.99,,2013-07-14 03:53:00,
2013-07-13 22:00:00,53.0,-99.9,-100.00,East,93,4.0,7.0,-999,0.00,,,-99.99,,2013-07-14 04:00:00,
2013-07-13 22:32:00,53.0,-99.9,-100.00,East,93,4.0,7.0,-999,0.00,,,-99.99,,2013-07-14 04:32:00,
2013-07-13 22:43:00,53.0,-99.9,-100.00,East,93,4.0,7.0,-999,0.00,,,-99.99,,2013-07-14 04:43:00,
2013-07-13 22:54:00,53.0,-99.9,-100.00,East,93,4.0,7.0,-999,0.00,,,-99.99,,2013-07-14 04:54:00,
2013-07-13 23:00:00,54.0,-99.9,-100.00,East,92,4.0,6.0,-999,0.00,,,-99.99,,2013-07-14 05:00:00,
2013-07-13 23:32:00,54.0,-99.9,-100.00,East,92,4.0,6.0,-999,0.00,,,-99.99,,2013-07-14 05:32:00,
2013-07-13 23:43:00,54.0,-99.9,-100.00,East,92,4.0,6.0,-999,0.00,,,-99.99,,2013-07-14 05:43:00,
2013-07-13 23:53:00,54.0,-99.9,-100.00,East,92,4.0,6.0,-999,0.00,,,-99.99,,2013-07-14 05:53:00,